Annapolis, MD

9:16 AM EST on November 24, 2014 (GMT -0500)
Annapolis Naval Academy | Change Station
CLOSE
Current Station
Airport
Location: Annapolis Naval Academy,
Elevation: 7 ft
Nearby Weather Stations

Elev 7 ft 38.99 °N, 76.49 °W | Updated 22 minutes ago

Mostly Cloudy
Mostly Cloudy
58 °F
Feels Like 58 °F
N
9
Wind Variable Wind from SSE

Today
High -- | Low -- °F
--% Chance of Precip.
Yesterday
High -- | Low -- °F
Precip. -- in
6:58 AM 4:46 PM
Waxing Crescent, 5% visible
Pressure 29.70 in
Visibility 10.0 miles
Clouds Scattered Clouds 2900 ft
Dew Point 56 °F
Humidity 93%
Rainfall 0.37 in
Snow Depth Not available.
UV 1 out of 12
Pollen .10 out of 12
Air Quality Not available.
Flu Activity Not available.
METAR KNAK 241354Z AUTO 16008KT 10SM SCT029 14/13 A2970 RMK AO2 SLP058 T01440133

More Conditions Fewer Conditions

Pressure 29.70 in
Visibility 10.0 miles
Clouds Scattered Clouds 2900 ft
Dew Point 56 °F
Humidity 93%
Rainfall 0.37 in
Snow Depth Not available.
UV 1 out of 12
Pollen .10 out of 12
Air Quality Not available.
Flu Activity Not available.
METAR KNAK 241354Z AUTO 16008KT 10SM SCT029 14/13 A2970 RMK AO2 SLP058 T01440133

More Conditions Fewer Conditions

10-Day Weather Forecast

Almanac

Astronomy

Nov. 24, 2014 Rise Set
Actual Time
Civil Twilight
Nautical Twilight
Astronomical Twilight
Moon
Length of Visible Light
Length of Day
Tomorrow will be .
, % of the Moon is Illuminated

Today's Extremes

State Highs State Lows

Community

WunderPhotos

Upload Photos

1,773,332 photos uploaded!

WunderBlogs® & News

Nearby

Air Quality

  Air Quality AQ Index Pollutant
Not available.

Snow Depth

Station Depth Elevation

Earthquake Activity

City Distance Mag. Time & Date
Minimum magnitude displayed is 2.5.

Coastal Water Temperatures

Place Temperature

Nearby Weather Stations